createdAt,value
2019-04-23T00:01:13.054Z,18.27
2019-04-23T00:02:20.514Z,18.23
2019-04-23T00:03:30.563Z,18.22
2019-04-23T00:04:28.357Z,18.20
2019-04-23T00:06:59.334Z,18.16
2019-04-23T00:07:56.357Z,18.15
2019-04-23T00:09:07.359Z,18.14
2019-04-23T00:10:12.306Z,18.12
2019-04-23T00:12:30.113Z,18.09
2019-04-23T00:13:30.354Z,18.09
2019-04-23T00:14:38.292Z,18.07
2019-04-23T00:16:00.455Z,18.04
2019-04-23T00:16:57.830Z,18.02
2019-04-23T00:18:09.651Z,18.01
2019-04-23T00:19:10.316Z,17.99
2019-04-23T00:20:14.665Z,17.97
2019-04-23T00:21:38.926Z,17.95
2019-04-23T00:22:51.739Z,17.92
2019-04-23T00:24:01.780Z,17.90
2019-04-23T00:25:30.677Z,17.89
2019-04-23T00:26:19.360Z,17.86
2019-04-23T00:27:40.460Z,17.83
2019-04-23T00:28:30.040Z,17.80
2019-04-23T00:29:36.826Z,17.78
2019-04-23T00:30:54.998Z,17.75
2019-04-23T00:31:56.175Z,17.73
2019-04-23T00:32:55.989Z,17.70
2019-04-23T00:34:01.186Z,17.68
2019-04-23T00:35:06.360Z,17.66
2019-04-23T00:36:22.937Z,17.63
2019-04-23T00:37:25.635Z,17.63
2019-04-23T00:38:36.668Z,17.60
2019-04-23T00:39:44.765Z,17.59
2019-04-23T00:40:47.247Z,17.57
2019-04-23T00:41:53.146Z,17.55
2019-04-23T00:42:53.564Z,17.52
2019-04-23T00:44:01.606Z,17.51
2019-04-23T00:45:12.343Z,17.49
2019-04-23T00:46:15.410Z,17.48
2019-04-23T00:47:25.554Z,17.47
2019-04-23T00:48:36.483Z,17.47
2019-04-23T00:49:40.097Z,17.46
2019-04-23T00:52:02.123Z,17.41
2019-04-23T00:52:57.675Z,17.40
2019-04-23T00:54:09.150Z,17.39
2019-04-23T00:57:29.326Z,17.36
2019-04-23T00:58:33.721Z,17.35
2019-04-23T00:59:50.131Z,17.33
2019-04-23T01:01:57.994Z,17.32
2019-04-23T01:03:20.411Z,17.30
2019-04-23T01:04:12.273Z,17.28
2019-04-23T01:05:18.314Z,17.28
2019-04-23T01:06:24.111Z,17.27
2019-04-23T01:07:33.514Z,17.27
2019-04-23T01:08:35.348Z,17.25
2019-04-23T01:09:52.733Z,17.22
2019-04-23T01:12:22.809Z,17.18
2019-04-23T01:13:31.303Z,17.15
2019-04-23T01:14:27.447Z,17.12
2019-04-23T01:15:41.156Z,17.11
2019-04-23T01:17:02.191Z,17.09
2019-04-23T01:19:08.719Z,17.05
2019-04-23T01:20:28.463Z,17.02
2019-04-23T01:21:18.117Z,17.00
2019-04-23T01:22:27.329Z,16.96
2019-04-23T01:23:51.609Z,16.93
2019-04-23T01:25:13.898Z,16.92
2019-04-23T01:26:30.941Z,16.90
2019-04-23T01:28:00.763Z,16.87
2019-04-23T01:28:55.788Z,16.86
2019-04-23T01:30:00.882Z,16.86
2019-04-23T01:31:08.903Z,16.84
2019-04-23T01:32:05.322Z,16.83
2019-04-23T01:33:31.347Z,16.81
2019-04-23T01:34:33.297Z,16.81
2019-04-23T01:35:28.799Z,16.80
2019-04-23T01:36:37.725Z,16.78
2019-04-23T01:38:54.704Z,16.75
2019-04-23T01:40:04.078Z,16.75
2019-04-23T01:41:09.550Z,16.74
2019-04-23T01:42:24.009Z,16.74
2019-04-23T01:43:23.802Z,16.73
2019-04-23T01:44:37.015Z,16.73
2019-04-23T01:45:32.695Z,16.72
2019-04-23T01:47:50.074Z,16.71
2019-04-23T01:48:58.328Z,16.70
2019-04-23T01:50:09.688Z,16.70
2019-04-23T01:51:01.784Z,16.70
2019-04-23T01:52:29.899Z,16.69
2019-04-23T01:53:30.078Z,16.67
2019-04-23T01:54:30.553Z,16.66
2019-04-23T01:55:43.764Z,16.65
2019-04-23T01:56:45.835Z,16.63
2019-04-23T01:59:06.532Z,16.59
2019-04-23T02:00:17.344Z,16.58
2019-04-23T02:01:16.107Z,16.56
2019-04-23T02:02:31.644Z,16.54
2019-04-23T02:03:48.570Z,16.51
2019-04-23T02:04:34.604Z,16.50
2019-04-23T02:06:53.730Z,16.47
2019-04-23T02:09:04.943Z,16.43
2019-04-23T02:10:26.599Z,16.40
2019-04-23T02:11:11.568Z,16.38
2019-04-23T02:12:25.747Z,16.37
2019-04-23T02:14:43.278Z,16.36
2019-04-23T02:16:50.001Z,16.30
2019-04-23T02:18:08.090Z,16.26
2019-04-23T02:19:11.548Z,16.25
2019-04-23T02:20:17.914Z,16.24
2019-04-23T02:21:26.094Z,16.21
2019-04-23T02:23:53.701Z,16.16
2019-04-23T02:25:27.993Z,16.12
2019-04-23T02:26:41.074Z,16.09
2019-04-23T02:27:39.576Z,16.06
2019-04-23T02:29:51.511Z,16.02
2019-04-23T02:31:18.561Z,16.01
2019-04-23T02:32:01.544Z,16.00
2019-04-23T02:33:31.765Z,15.99
2019-04-23T02:34:37.452Z,15.99
2019-04-23T02:35:52.842Z,15.98
2019-04-23T02:36:33.710Z,15.98
2019-04-23T02:37:54.446Z,15.97
2019-04-23T02:42:20.841Z,15.87
2019-04-23T02:45:27.045Z,15.83
2019-04-23T02:46:28.762Z,15.83
2019-04-23T02:47:42.390Z,15.82
2019-04-23T02:48:54.692Z,15.81
2019-04-23T02:50:08.858Z,15.80
2019-04-23T02:51:03.498Z,15.79
2019-04-23T02:53:26.035Z,15.75
2019-04-23T02:55:43.699Z,15.72
2019-04-23T02:56:47.079Z,15.72
2019-04-23T03:00:12.114Z,15.67
2019-04-23T03:01:22.053Z,15.66
2019-04-23T03:04:33.970Z,15.61
2019-04-23T03:05:46.637Z,15.59
2019-04-23T03:06:48.086Z,15.57
2019-04-23T03:07:59.833Z,15.56
2019-04-23T03:08:49.149Z,15.53
2019-04-23T03:12:24.599Z,15.48
2019-04-23T03:13:40.911Z,15.46
2019-04-23T03:14:32.994Z,15.46
2019-04-23T03:16:56.379Z,15.45
2019-04-23T03:18:39.642Z,15.43
2019-04-23T03:19:40.200Z,15.41
2019-04-23T03:21:05.935Z,15.39
2019-04-23T03:22:01.588Z,15.34
2019-04-23T03:24:38.971Z,15.27
2019-04-23T03:25:49.580Z,15.26
2019-04-23T03:27:55.807Z,15.26
2019-04-23T03:29:21.995Z,15.24
2019-04-23T03:33:12.569Z,15.22
2019-04-23T03:34:15.162Z,15.22
2019-04-23T03:38:12.903Z,15.16
2019-04-23T03:39:02.935Z,15.14
2019-04-23T03:40:13.221Z,15.12
2019-04-23T03:41:34.714Z,15.11
2019-04-23T03:43:45.383Z,15.09
2019-04-23T03:45:03.182Z,15.09
2019-04-23T03:46:19.067Z,15.08
2019-04-23T03:47:07.088Z,15.08
2019-04-23T03:48:22.230Z,15.06
2019-04-23T03:49:14.948Z,15.04
2019-04-23T03:50:30.058Z,15.03
2019-04-23T03:51:38.245Z,15.02
2019-04-23T03:52:38.926Z,15.01
2019-04-23T03:54:50.240Z,15.00
2019-04-23T03:56:07.154Z,14.98
2019-04-23T03:57:15.728Z,14.95
2019-04-23T03:58:12.180Z,14.94
2019-04-23T03:59:32.314Z,14.92
2019-04-23T04:00:37.469Z,14.90
2019-04-23T04:01:38.385Z,14.88
2019-04-23T04:04:21.670Z,14.84
2019-04-23T04:04:49.790Z,14.83
2019-04-23T04:06:05.492Z,14.81
2019-04-23T04:08:26.729Z,14.79
2019-04-23T04:09:34.281Z,14.79
2019-04-23T04:10:42.164Z,14.79
2019-04-23T04:11:33.490Z,14.79
2019-04-23T04:12:50.030Z,14.80
2019-04-23T04:14:07.094Z,14.80
2019-04-23T04:16:07.447Z,14.80
2019-04-23T04:18:33.089Z,14.82
2019-04-23T04:19:31.990Z,14.81
2019-04-23T04:21:39.888Z,14.80
2019-04-23T04:23:01.668Z,14.81
2019-04-23T04:24:01.331Z,14.81
2019-04-23T04:25:08.872Z,14.81
2019-04-23T04:26:14.287Z,14.81
2019-04-23T04:27:22.105Z,14.81
2019-04-23T04:29:40.349Z,14.78
2019-04-23T04:34:11.642Z,14.73
2019-04-23T04:36:21.767Z,14.72
2019-04-23T04:38:47.394Z,14.70
2019-04-23T04:39:43.061Z,14.70
2019-04-23T04:40:55.156Z,14.70
2019-04-23T04:43:14.154Z,14.69
2019-04-23T04:46:34.573Z,14.67
2019-04-23T04:48:46.383Z,14.68
2019-04-23T04:49:51.016Z,14.66
2019-04-23T04:51:01.580Z,14.67
2019-04-23T04:52:11.642Z,14.67
2019-04-23T04:53:38.382Z,14.67
2019-04-23T04:56:29.881Z,14.69
2019-04-23T04:57:35.773Z,14.69
2019-04-23T04:58:52.894Z,14.70
2019-04-23T04:59:55.508Z,14.72
2019-04-23T05:01:04.243Z,14.72
2019-04-23T05:02:11.826Z,14.71
2019-04-23T05:04:24.748Z,14.70
2019-04-23T05:07:34.160Z,14.64
2019-04-23T05:12:18.475Z,14.66
2019-04-23T05:13:32.163Z,14.67
2019-04-23T05:14:12.742Z,14.68
2019-04-23T05:15:17.162Z,14.70
2019-04-23T05:16:29.253Z,14.72
2019-04-23T05:21:20.775Z,14.81
2019-04-23T05:22:22.551Z,14.84
2019-04-23T05:24:48.433Z,14.88
2019-04-23T05:25:52.873Z,14.90
2019-04-23T05:26:58.422Z,14.91
2019-04-23T05:28:17.332Z,14.94
2019-04-23T05:29:11.176Z,14.96
2019-04-23T05:30:22.620Z,15.00
2019-04-23T05:31:23.614Z,15.02
2019-04-23T05:32:32.930Z,15.04
2019-04-23T05:33:38.177Z,15.06
2019-04-23T05:34:47.536Z,15.09
2019-04-23T05:37:00.028Z,15.16
2019-04-23T05:38:18.642Z,15.20
2019-04-23T05:39:24.714Z,15.25
2019-04-23T05:40:30.408Z,15.32
2019-04-23T05:41:36.471Z,15.39
2019-04-23T05:42:44.575Z,15.44
2019-04-23T05:43:46.745Z,15.51
2019-04-23T05:44:59.318Z,15.57
2019-04-23T05:45:55.221Z,15.64
2019-04-23T05:47:14.976Z,15.71
2019-04-23T05:48:12.985Z,15.76
2019-04-23T05:49:22.605Z,15.82
2019-04-23T05:50:35.715Z,15.88
2019-04-23T05:51:37.971Z,15.93
2019-04-23T05:52:45.881Z,15.99
2019-04-23T05:53:45.171Z,16.07
2019-04-23T05:54:56.243Z,16.13
2019-04-23T05:56:01.806Z,16.21
2019-04-23T05:57:00.284Z,16.28
2019-04-23T05:58:16.637Z,16.32
2019-04-23T05:59:21.628Z,16.37
2019-04-23T06:00:34.733Z,16.41
2019-04-23T06:02:48.442Z,16.48
2019-04-23T06:03:56.945Z,16.51
2019-04-23T06:04:58.521Z,16.55
2019-04-23T06:06:11.227Z,16.59
2019-04-23T06:07:28.770Z,16.61
2019-04-23T06:08:32.210Z,16.63
2019-04-23T06:09:34.091Z,16.65
2019-04-23T06:10:54.068Z,16.69
2019-04-23T06:11:59.718Z,16.70
2019-04-23T06:13:03.089Z,16.73
2019-04-23T06:14:06.351Z,16.77
2019-04-23T06:15:11.276Z,16.81
2019-04-23T06:16:22.191Z,16.85
2019-04-23T06:17:21.075Z,16.88
2019-04-23T06:18:44.377Z,16.90
2019-04-23T06:19:36.825Z,16.92
2019-04-23T06:20:50.306Z,16.93
2019-04-23T06:23:05.705Z,16.95
2019-04-23T06:25:21.642Z,16.96
2019-04-23T06:26:42.927Z,16.97
2019-04-23T06:27:27.735Z,16.99
2019-04-23T06:28:35.187Z,16.99
2019-04-23T06:29:43.330Z,16.99
2019-04-23T06:31:55.242Z,17.02
2019-04-23T06:33:07.671Z,17.04
2019-04-23T06:35:19.122Z,17.08
2019-04-23T06:36:25.590Z,17.09
2019-04-23T06:37:46.660Z,17.11
2019-04-23T06:38:47.857Z,17.12
2019-04-23T06:39:41.533Z,17.14
2019-04-23T06:40:48.813Z,17.13
2019-04-23T06:41:55.139Z,17.17
2019-04-23T06:43:15.025Z,17.17
2019-04-23T06:44:24.314Z,17.17
2019-04-23T06:45:32.542Z,17.16
2019-04-23T06:46:48.091Z,17.18
2019-04-23T06:47:42.932Z,17.18
2019-04-23T06:48:57.052Z,17.18
2019-04-23T06:50:00.243Z,17.19
2019-04-23T06:51:17.932Z,17.21
2019-04-23T06:53:21.494Z,17.24
2019-04-23T06:54:41.066Z,17.26
2019-04-23T06:55:35.672Z,17.27
2019-04-23T06:56:54.275Z,17.28
2019-04-23T06:57:48.150Z,17.30
2019-04-23T06:58:58.813Z,17.33
2019-04-23T06:59:59.282Z,17.35
2019-04-23T07:02:19.485Z,17.42
2019-04-23T07:03:33.895Z,17.45
2019-04-23T07:04:37.990Z,17.46
2019-04-23T07:06:12.211Z,17.48
2019-04-23T07:08:13.596Z,17.52
2019-04-23T07:10:29.898Z,17.54
2019-04-23T07:11:34.229Z,17.57
2019-04-23T07:12:44.778Z,17.61
2019-04-23T07:13:54.653Z,17.65
2019-04-23T07:16:01.184Z,17.71
2019-04-23T07:17:21.226Z,17.74
2019-04-23T07:18:17.611Z,17.77
2019-04-23T07:20:34.218Z,17.78
2019-04-23T07:21:37.311Z,17.78
2019-04-23T07:22:53.880Z,17.82
2019-04-23T07:24:00.606Z,17.84
2019-04-23T07:25:00.135Z,17.86
2019-04-23T07:26:21.279Z,17.85
2019-04-23T07:27:14.856Z,17.85
2019-04-23T07:28:26.160Z,17.87
2019-04-23T07:29:25.325Z,17.88
2019-04-23T07:30:33.161Z,17.88
2019-04-23T07:31:44.540Z,17.91
2019-04-23T07:32:52.964Z,17.94
2019-04-23T07:33:57.568Z,17.96
2019-04-23T07:35:07.228Z,17.99
2019-04-23T07:36:08.598Z,18.00
2019-04-23T07:37:31.959Z,17.99
2019-04-23T07:38:48.235Z,17.97
2019-04-23T07:40:06.177Z,17.98
2019-04-23T07:40:59.452Z,17.99
2019-04-23T07:42:20.963Z,18.00
2019-04-23T07:43:30.305Z,18.02
2019-04-23T07:45:01.848Z,18.04
2019-04-23T07:46:35.029Z,18.06
2019-04-23T07:48:00.263Z,18.07
2019-04-23T07:48:55.988Z,18.09
2019-04-23T07:50:22.845Z,18.12
2019-04-23T07:51:10.875Z,18.16
2019-04-23T07:52:20.145Z,18.20
2019-04-23T07:54:29.022Z,18.28
2019-04-23T07:56:43.788Z,18.33
2019-04-23T07:57:57.015Z,18.37
2019-04-23T07:59:01.387Z,18.40
2019-04-23T08:00:07.889Z,18.44
2019-04-23T08:01:08.233Z,18.49
2019-04-23T08:02:21.850Z,18.53
2019-04-23T08:03:22.625Z,18.56
2019-04-23T08:04:35.224Z,18.61
2019-04-23T08:05:49.061Z,18.65
2019-04-23T08:06:46.435Z,18.68
2019-04-23T08:07:57.395Z,18.71
2019-04-23T08:08:56.792Z,18.75
2019-04-23T08:10:24.250Z,18.79
2019-04-23T08:13:33.676Z,18.90
2019-04-23T08:14:40.391Z,18.91
2019-04-23T08:15:42.963Z,18.93
2019-04-23T08:16:43.807Z,18.96
2019-04-23T08:18:01.804Z,18.99
2019-04-23T08:18:57.788Z,19.01
2019-04-23T08:20:11.149Z,19.01
2019-04-23T08:22:28.696Z,19.05
2019-04-23T08:25:31.903Z,19.10
2019-04-23T08:26:53.531Z,19.13
2019-04-23T08:28:11.842Z,19.15
2019-04-23T08:29:10.140Z,19.17
2019-04-23T08:30:12.631Z,19.19
2019-04-23T08:31:35.143Z,19.21
2019-04-23T08:32:21.478Z,19.25
2019-04-23T08:33:42.164Z,19.29
2019-04-23T08:35:57.659Z,19.34
2019-04-23T08:37:04.939Z,19.35
2019-04-23T08:38:26.654Z,19.39
2019-04-23T08:39:10.259Z,19.41
2019-04-23T08:40:26.597Z,19.43
2019-04-23T08:48:41.621Z,19.58
2019-04-23T08:49:46.828Z,19.61
2019-04-23T08:52:07.119Z,19.64
2019-04-23T08:53:05.240Z,19.68
2019-04-23T08:54:09.138Z,19.71
2019-04-23T08:55:12.321Z,19.74
2019-04-23T08:57:27.050Z,19.81
2019-04-23T08:59:45.214Z,19.87
2019-04-23T09:02:18.399Z,19.93
2019-04-23T09:03:11.198Z,19.98
2019-04-23T09:04:22.005Z,19.98
2019-04-23T09:05:28.646Z,20.01
2019-04-23T09:08:38.920Z,20.06
2019-04-23T09:09:51.009Z,20.09
2019-04-23T09:11:06.788Z,20.11
2019-04-23T09:11:58.111Z,20.13
2019-04-23T09:13:35.912Z,20.16
2019-04-23T09:14:05.223Z,20.18
2019-04-23T09:15:36.768Z,20.20
2019-04-23T09:16:37.839Z,20.21
2019-04-23T09:17:46.433Z,20.24
2019-04-23T09:19:02.628Z,20.28
2019-04-23T09:20:07.123Z,20.30
2019-04-23T09:20:57.217Z,20.30
2019-04-23T09:22:08.926Z,20.30
2019-04-23T09:23:13.579Z,20.32
2019-04-23T09:24:22.590Z,20.33
2019-04-23T09:25:49.708Z,20.35
2019-04-23T09:26:37.840Z,20.37
2019-04-23T09:27:42.030Z,20.40
2019-04-23T09:31:11.655Z,20.44
2019-04-23T09:34:09.937Z,20.47
2019-04-23T09:36:58.356Z,20.52
2019-04-23T09:38:17.717Z,20.53
2019-04-23T09:41:15.523Z,20.62
2019-04-23T09:44:09.485Z,20.67
2019-04-23T09:45:42.352Z,20.69
2019-04-23T09:46:49.427Z,20.70
2019-04-23T09:50:15.826Z,20.73
2019-04-23T09:51:27.769Z,20.74
2019-04-23T09:52:30.947Z,20.77
2019-04-23T09:55:54.657Z,20.76
2019-04-23T09:56:52.525Z,20.76
2019-04-23T09:58:05.993Z,20.77
2019-04-23T09:59:15.970Z,20.81
2019-04-23T10:00:25.015Z,20.82
2019-04-23T10:02:26.985Z,20.85
2019-04-23T10:03:26.834Z,20.87
2019-04-23T10:04:36.791Z,20.88
2019-04-23T10:05:39.153Z,20.91
2019-04-23T10:06:38.682Z,20.94
2019-04-23T10:07:51.981Z,20.96
2019-04-23T10:08:53.562Z,20.98
2019-04-23T10:09:57.250Z,21.01
2019-04-23T10:11:03.025Z,21.03
2019-04-23T10:12:09.473Z,21.04
2019-04-23T10:13:15.844Z,21.04
2019-04-23T10:14:21.520Z,21.04
2019-04-23T10:15:34.388Z,21.07
2019-04-23T10:16:34.335Z,21.09
2019-04-23T10:17:40.306Z,21.12
2019-04-23T10:18:47.149Z,21.15
2019-04-23T10:19:52.992Z,21.20
2019-04-23T10:20:59.362Z,21.22
2019-04-23T10:22:05.164Z,21.25
2019-04-23T10:23:10.409Z,21.28
2019-04-23T10:24:16.860Z,21.32
2019-04-23T10:25:22.754Z,21.34
2019-04-23T10:26:28.478Z,21.38
2019-04-23T10:27:35.057Z,21.40
2019-04-23T10:29:00.109Z,21.43
2019-04-23T10:30:06.013Z,21.44
2019-04-23T10:31:12.702Z,21.48
2019-04-23T10:32:17.904Z,21.49
2019-04-23T10:33:23.594Z,21.53
2019-04-23T10:34:30.463Z,21.52
2019-04-23T10:35:46.017Z,21.55
2019-04-23T10:36:44.069Z,21.56
2019-04-23T10:37:56.597Z,21.58
2019-04-23T10:39:03.519Z,21.61
2019-04-23T10:40:07.383Z,21.65
2019-04-23T10:41:10.138Z,21.66
2019-04-23T10:42:16.115Z,21.68
2019-04-23T10:43:22.636Z,21.69
2019-04-23T10:44:33.643Z,21.74
2019-04-23T10:46:29.579Z,21.76
2019-04-23T10:48:02.642Z,21.79
2019-04-23T10:50:51.410Z,21.88
2019-04-23T10:52:07.590Z,21.91
2019-04-23T10:53:19.497Z,21.92
2019-04-23T10:55:25.256Z,21.93
2019-04-23T10:56:37.120Z,21.95
2019-04-23T10:57:45.900Z,21.96
2019-04-23T10:58:38.693Z,21.99
2019-04-23T10:59:44.660Z,22.01
2019-04-23T11:00:59.833Z,22.05
2019-04-23T11:04:52.387Z,22.12
2019-04-23T11:06:45.065Z,22.14
2019-04-23T11:07:50.461Z,22.15
2019-04-23T11:09:11.355Z,22.17
2019-04-23T11:11:18.716Z,22.22
2019-04-23T11:15:11.134Z,22.30
2019-04-23T11:16:43.428Z,22.32
2019-04-23T11:17:18.511Z,22.35
2019-04-23T11:18:31.118Z,22.35
2019-04-23T11:19:31.980Z,22.35
2019-04-23T11:20:34.049Z,22.35
2019-04-23T11:21:48.061Z,22.36
2019-04-23T11:24:00.001Z,22.44
2019-04-23T11:25:15.447Z,22.47
2019-04-23T11:26:14.169Z,22.49
2019-04-23T11:27:24.453Z,22.51
2019-04-23T11:30:41.083Z,22.57
2019-04-23T11:32:23.850Z,22.57
2019-04-23T11:33:00.795Z,22.58
2019-04-23T11:35:24.087Z,22.59
2019-04-23T11:36:41.146Z,22.61
2019-04-23T11:37:36.920Z,22.65
2019-04-23T11:39:47.442Z,22.70
2019-04-23T11:40:37.004Z,22.72
2019-04-23T11:41:59.735Z,22.73
2019-04-23T11:44:16.714Z,22.74
2019-04-23T11:45:24.802Z,22.72
2019-04-23T11:46:39.999Z,22.72
2019-04-23T11:48:13.960Z,22.73
2019-04-23T11:48:52.287Z,22.74
2019-04-23T11:49:59.604Z,22.76
2019-04-23T11:52:13.635Z,22.78
2019-04-23T11:53:15.569Z,22.82
2019-04-23T11:54:17.881Z,22.83
2019-04-23T11:56:55.049Z,22.87
2019-04-23T11:58:45.930Z,22.90
2019-04-23T11:59:55.681Z,22.91
2019-04-23T12:01:34.500Z,22.91
2019-04-23T12:02:35.518Z,22.93
2019-04-23T12:03:47.139Z,22.95
2019-04-23T12:05:00.877Z,22.97
2019-04-23T12:06:30.098Z,22.97
2019-04-23T12:07:46.928Z,22.98
2019-04-23T12:08:56.661Z,23.01
2019-04-23T12:10:23.515Z,23.00
2019-04-23T12:11:52.679Z,22.99
2019-04-23T12:12:33.500Z,22.99
2019-04-23T12:14:09.592Z,22.99
2019-04-23T12:15:19.536Z,23.01
2019-04-23T12:16:31.724Z,23.02
2019-04-23T12:17:33.173Z,23.05
2019-04-23T12:20:57.354Z,23.11
2019-04-23T12:22:18.067Z,23.14
2019-04-23T12:23:40.912Z,23.15
2019-04-23T12:24:54.651Z,23.17
2019-04-23T12:25:32.864Z,23.19
2019-04-23T12:26:44.351Z,23.21
2019-04-23T12:27:39.341Z,23.23
2019-04-23T12:28:53.630Z,23.23
2019-04-23T12:30:00.777Z,23.26
2019-04-23T12:31:09.850Z,23.26
2019-04-23T12:33:42.596Z,23.28
2019-04-23T12:34:49.507Z,23.31
2019-04-23T12:35:39.289Z,23.34
2019-04-23T12:36:53.706Z,23.36
2019-04-23T12:38:07.271Z,23.40
2019-04-23T12:39:21.199Z,23.41
2019-04-23T12:41:29.872Z,23.44
2019-04-23T12:43:40.464Z,23.43
2019-04-23T12:44:56.841Z,23.43
2019-04-23T12:45:50.517Z,23.43
2019-04-23T12:47:17.271Z,23.43
2019-04-23T12:48:16.372Z,23.42
2019-04-23T12:49:35.673Z,23.42
2019-04-23T12:51:47.161Z,23.40
2019-04-23T12:52:46.884Z,23.42
2019-04-23T12:53:40.199Z,23.42
2019-04-23T12:56:10.803Z,23.44
2019-04-23T12:57:12.890Z,23.47
2019-04-23T12:58:18.717Z,23.50
2019-04-23T12:59:23.797Z,23.52
2019-04-23T13:00:33.902Z,23.54
2019-04-23T13:01:46.980Z,23.57
2019-04-23T13:02:45.194Z,23.58
2019-04-23T13:04:00.113Z,23.60
2019-04-23T13:05:12.180Z,23.62
2019-04-23T13:05:57.528Z,23.63
2019-04-23T13:07:17.720Z,23.66
2019-04-23T13:09:34.685Z,23.69
2019-04-23T13:11:41.149Z,23.73
2019-04-23T13:13:53.527Z,23.76
2019-04-23T13:15:05.612Z,23.75
2019-04-23T13:16:14.560Z,23.76
2019-04-23T13:17:40.291Z,23.74
2019-04-23T13:18:26.226Z,23.74
2019-04-23T13:19:39.707Z,23.74
2019-04-23T13:20:33.594Z,23.74
2019-04-23T13:22:00.639Z,23.71
2019-04-23T13:22:54.907Z,23.68
2019-04-23T13:24:20.539Z,23.68
2019-04-23T13:25:45.657Z,23.67
2019-04-23T13:26:35.534Z,23.65
2019-04-23T13:29:01.426Z,23.64
2019-04-23T13:30:06.768Z,23.65
2019-04-23T13:31:20.368Z,23.63
2019-04-23T13:32:26.143Z,23.63
2019-04-23T13:33:37.972Z,23.63
2019-04-23T13:34:41.440Z,23.65
2019-04-23T13:36:03.170Z,23.67
2019-04-23T13:37:11.999Z,23.69
2019-04-23T13:37:59.542Z,23.71
2019-04-23T13:38:56.648Z,23.73
2019-04-23T13:40:09.363Z,23.74
2019-04-23T13:42:37.225Z,23.79
2019-04-23T13:43:38.002Z,23.81
2019-04-23T13:44:42.722Z,23.81
2019-04-23T13:45:59.912Z,23.84
2019-04-23T13:46:51.059Z,23.84
2019-04-23T13:49:02.826Z,23.86
2019-04-23T13:50:17.631Z,23.87
2019-04-23T13:51:21.261Z,23.89
2019-04-23T13:52:51.634Z,23.90
2019-04-23T13:54:17.321Z,23.92
2019-04-23T13:55:00.268Z,23.93
2019-04-23T13:55:42.887Z,23.94
2019-04-23T13:57:27.167Z,23.94
2019-04-23T13:58:09.237Z,23.97
2019-04-23T13:59:16.322Z,23.97
2019-04-23T14:00:27.000Z,23.95
2019-04-23T14:02:37.241Z,23.96
2019-04-23T14:03:42.928Z,23.98
2019-04-23T14:06:18.597Z,24.01
2019-04-23T14:07:24.850Z,24.03
2019-04-23T14:08:39.272Z,24.03
2019-04-23T14:09:45.799Z,24.03
2019-04-23T14:10:40.077Z,24.03
2019-04-23T14:11:45.122Z,24.03
2019-04-23T14:13:08.228Z,24.02
2019-04-23T14:16:33.093Z,24.04
2019-04-23T14:17:46.665Z,24.05
2019-04-23T14:19:38.297Z,24.07
2019-04-23T14:20:40.388Z,24.08
2019-04-23T14:21:51.830Z,24.10
2019-04-23T14:23:09.430Z,24.10
2019-04-23T14:25:02.710Z,24.11
2019-04-23T14:25:10.914Z,24.13
2019-04-23T14:27:29.742Z,24.14
2019-04-23T14:28:37.712Z,24.15
2019-04-23T14:29:52.313Z,24.16
2019-04-23T14:30:55.947Z,24.18
2019-04-23T14:32:07.313Z,24.18
2019-04-23T14:33:13.016Z,24.18
2019-04-23T14:36:25.395Z,24.19
2019-04-23T14:37:57.007Z,24.19
2019-04-23T14:38:41.155Z,24.20
2019-04-23T14:39:52.824Z,24.21
2019-04-23T14:41:12.477Z,24.24
2019-04-23T14:43:14.620Z,24.29
2019-04-23T14:44:20.097Z,24.31
2019-04-23T14:45:57.830Z,24.34
2019-04-23T14:47:00.713Z,24.34
2019-04-23T14:48:04.282Z,24.36
2019-04-23T14:49:07.194Z,24.38
2019-04-23T14:50:29.362Z,24.40
2019-04-23T14:52:31.308Z,24.44
2019-04-23T14:53:33.440Z,24.46
2019-04-23T14:56:04.247Z,24.50
2019-04-23T14:57:11.241Z,24.50
2019-04-23T14:58:18.232Z,24.52
2019-04-23T14:59:29.098Z,24.54
2019-04-23T15:00:31.388Z,24.55
2019-04-23T15:05:02.010Z,24.60
2019-04-23T15:07:08.937Z,24.63
2019-04-23T15:08:15.002Z,24.62
2019-04-23T15:09:28.065Z,24.62
2019-04-23T15:11:35.717Z,24.61
2019-04-23T15:12:42.528Z,24.62
2019-04-23T15:15:02.684Z,24.63
2019-04-23T15:16:12.723Z,24.64
2019-04-23T15:17:07.181Z,24.65
2019-04-23T15:18:44.958Z,24.66
2019-04-23T15:19:51.169Z,24.67
2019-04-23T15:21:25.621Z,24.69
2019-04-23T15:22:13.626Z,24.69
2019-04-23T15:24:26.011Z,24.68
2019-04-23T15:25:38.114Z,24.69
2019-04-23T15:28:30.394Z,24.68
2019-04-23T15:29:48.262Z,24.66
2019-04-23T15:31:10.080Z,24.64
2019-04-23T15:32:09.689Z,24.64
2019-04-23T15:34:20.929Z,24.64
2019-04-23T15:35:39.714Z,24.64
2019-04-23T15:37:11.217Z,24.65
2019-04-23T15:40:03.273Z,24.67
2019-04-23T15:41:10.476Z,24.67
2019-04-23T15:43:19.021Z,24.67
2019-04-23T15:44:16.201Z,24.68
2019-04-23T15:45:28.306Z,24.69
2019-04-23T15:47:49.297Z,24.67
2019-04-23T15:49:01.295Z,24.65
2019-04-23T15:51:16.929Z,24.62
2019-04-23T15:52:10.618Z,24.62
2019-04-23T15:53:11.226Z,24.62
2019-04-23T15:54:30.228Z,24.63
2019-04-23T15:55:35.103Z,24.62
2019-04-23T15:56:44.632Z,24.62
2019-04-23T15:58:01.031Z,24.61
2019-04-23T15:59:58.878Z,24.59
2019-04-23T16:01:21.183Z,24.56
2019-04-23T16:01:54.009Z,24.54
2019-04-23T16:02:59.270Z,24.53
2019-04-23T16:04:06.123Z,24.50
2019-04-23T16:05:12.462Z,24.49
2019-04-23T16:06:21.991Z,24.48
2019-04-23T16:07:42.646Z,24.48
2019-04-23T16:09:04.821Z,24.46
2019-04-23T16:10:12.019Z,24.46
2019-04-23T16:11:27.945Z,24.45
2019-04-23T16:12:24.607Z,24.43
2019-04-23T16:13:40.367Z,24.42
2019-04-23T16:14:58.579Z,24.39
2019-04-23T16:15:59.131Z,24.37
2019-04-23T16:20:00.182Z,24.34
2019-04-23T16:21:14.631Z,24.32
2019-04-23T16:22:11.020Z,24.31
2019-04-23T16:23:16.847Z,24.30
2019-04-23T16:24:20.517Z,24.28
2019-04-23T16:25:22.162Z,24.27
2019-04-23T16:26:37.003Z,24.27
2019-04-23T16:27:45.825Z,24.25
2019-04-23T16:29:16.259Z,24.25
2019-04-23T16:30:15.648Z,24.24
2019-04-23T16:31:19.024Z,24.23
2019-04-23T16:32:14.666Z,24.21
2019-04-23T16:33:11.371Z,24.21
2019-04-23T16:34:34.089Z,24.19
2019-04-23T16:36:01.499Z,24.17
2019-04-23T16:37:13.750Z,24.16
2019-04-23T16:40:31.608Z,24.12
2019-04-23T16:41:36.810Z,24.08
2019-04-23T16:42:39.955Z,24.06
2019-04-23T16:43:54.927Z,24.05
2019-04-23T16:45:06.277Z,24.01
2019-04-23T16:46:05.313Z,23.99
2019-04-23T16:47:12.629Z,23.96
2019-04-23T16:48:22.188Z,23.95
2019-04-23T16:49:22.043Z,23.93
2019-04-23T16:50:28.968Z,23.90
2019-04-23T16:51:33.796Z,23.88
2019-04-23T16:52:42.497Z,23.88
2019-04-23T16:53:44.356Z,23.87
2019-04-23T16:54:58.601Z,23.86
2019-04-23T16:56:13.394Z,23.85
2019-04-23T16:57:21.524Z,23.83
2019-04-23T16:58:25.293Z,23.81
2019-04-23T16:59:24.635Z,23.82
2019-04-23T17:00:33.365Z,23.79
2019-04-23T17:01:39.703Z,23.77
2019-04-23T17:02:45.156Z,23.75
2019-04-23T17:03:56.656Z,23.72
2019-04-23T17:05:07.393Z,23.72
2019-04-23T17:06:10.121Z,23.69
2019-04-23T17:07:08.421Z,23.67
2019-04-23T17:09:31.516Z,23.63
2019-04-23T17:10:36.640Z,23.63
2019-04-23T17:11:41.872Z,23.62
2019-04-23T17:12:59.711Z,23.62
2019-04-23T17:14:02.190Z,23.61
2019-04-23T17:15:08.732Z,23.60
2019-04-23T17:17:14.844Z,23.57
2019-04-23T17:18:29.853Z,23.56
2019-04-23T17:19:28.216Z,23.54
2019-04-23T17:20:44.091Z,23.53
2019-04-23T17:21:37.003Z,23.49
2019-04-23T17:23:01.945Z,23.48
2019-04-23T17:24:08.010Z,23.48
2019-04-23T17:25:15.684Z,23.47
2019-04-23T17:27:24.165Z,23.43
2019-04-23T17:29:35.260Z,23.40
2019-04-23T17:30:51.739Z,23.38
2019-04-23T17:31:52.961Z,23.36
2019-04-23T17:33:19.143Z,23.34
2019-04-23T17:35:02.456Z,23.32
2019-04-23T17:35:45.045Z,23.29
2019-04-23T17:36:38.305Z,23.28
2019-04-23T17:37:55.897Z,23.26
2019-04-23T17:39:10.599Z,23.25
2019-04-23T17:40:17.474Z,23.23
2019-04-23T17:41:59.651Z,23.22
2019-04-23T17:44:18.861Z,23.18
2019-04-23T17:45:30.940Z,23.14
2019-04-23T17:46:22.525Z,23.12
2019-04-23T17:47:37.729Z,23.10
2019-04-23T17:48:35.298Z,23.10
2019-04-23T17:50:02.334Z,23.07
2019-04-23T17:50:56.765Z,23.05
2019-04-23T17:52:05.459Z,23.04
2019-04-23T17:53:11.073Z,23.03
2019-04-23T17:54:17.891Z,23.02
2019-04-23T17:55:27.365Z,23.01
2019-04-23T17:56:35.843Z,22.99
2019-04-23T17:57:36.998Z,22.98
2019-04-23T17:58:40.880Z,22.97
2019-04-23T18:00:17.962Z,22.97